Time;durP1;ratioP1;P1;durP2;ratioP2;P2;SDS_P1;SDS_P2;PMS_P1;PMS_P2;Temp;Humidity;BMP_temperature;BMP_pressure;BME280_temperature;BME280_humidity;BME280_pressure;Samples;Min_cycle;Max_cycle;Signal;HPM_P1;HPM_P2
2021/09/30 00:02:13;;;;;;;4.97;3.05;;;;;;;8.71;100.00;102317.56;5273347;28;20024;-67
2021/09/30 00:04:45;;;;;;;8.23;2.85;;;;;;;8.70;100.00;102319.34;5263903;28;20421;-67
2021/09/30 00:07:16;;;;;;;5.80;2.92;;;;;;;8.64;100.00;102318.84;5262192;28;20043;-67
2021/09/30 00:09:48;;;;;;;7.13;3.10;;;;;;;8.66;100.00;102320.44;5260933;28;20390;-67
2021/09/30 00:12:26;;;;;;;7.57;3.30;;;;;;;8.66;100.00;102323.03;5256989;28;20021;-66
2021/09/30 00:15:01;;;;;;;6.55;2.42;;;;;;;8.59;100.00;102315.63;5260998;28;20035;-67
2021/09/30 00:17:49;;;;;;;9.85;3.00;;;;;;;8.63;100.00;102336.25;5261443;28;20025;-67
2021/09/30 00:48:59;;;;;;;6.57;2.33;;;;;;;8.49;100.00;102342.22;5255200;28;20478;-67
2021/09/30 02:20:21;;;;;;;7.68;3.17;;;;;;;8.17;100.00;102371.72;5257823;28;20029;-66
2021/09/30 02:23:27;;;;;;;7.97;2.63;;;;;;;8.15;100.00;102378.78;5250637;28;20041;-65
2021/09/30 02:31:33;;;;;;;6.25;2.50;;;;;;;8.11;100.00;102378.09;5259289;28;20044;-65
2021/09/30 02:59:58;;;;;;;7.07;2.88;;;;;;;8.03;100.00;102365.44;5263125;28;20112;-65
2021/09/30 03:02:31;;;;;;;8.07;2.60;;;;;;;7.99;100.00;102378.69;5258226;28;20105;-65
2021/09/30 03:05:03;;;;;;;8.68;2.88;;;;;;;7.97;100.00;102381.38;5255256;28;20536;-65
2021/09/30 03:07:37;;;;;;;7.50;2.72;;;;;;;7.92;100.00;102372.94;5263212;28;20032;-65
2021/09/30 03:10:10;;;;;;;9.50;2.58;;;;;;;7.91;100.00;102381.66;5260933;28;20021;-65
2021/09/30 03:12:43;;;;;;;7.60;2.83;;;;;;;7.92;100.00;102377.31;5259801;28;20036;-66
2021/09/30 03:23:35;;;;;;;7.00;2.50;;;;;;;7.86;100.00;102388.91;5234050;28;20044;-66
2021/09/30 03:26:07;;;;;;;8.05;2.40;;;;;;;7.82;100.00;102389.97;5262319;28;20392;-65
2021/09/30 03:28:40;;;;;;;9.73;2.58;;;;;;;7.86;100.00;102399.34;5255520;28;20025;-66
2021/09/30 03:31:13;;;;;;;6.85;2.17;;;;;;;7.82;100.00;102391.72;5262050;28;20555;-66
2021/09/30 03:33:46;;;;;;;8.15;2.15;;;;;;;7.82;100.00;102397.78;5262554;28;20021;-65
2021/09/30 03:36:18;;;;;;;7.53;2.70;;;;;;;7.78;100.00;102394.47;5260904;28;20105;-65
2021/09/30 03:38:49;;;;;;;9.30;2.28;;;;;;;7.77;100.00;102395.41;5262044;28;20131;-65
2021/09/30 03:41:21;;;;;;;9.05;2.55;;;;;;;7.77;100.00;102403.25;5261994;28;20478;-65
2021/09/30 03:43:52;;;;;;;5.57;2.13;;;;;;;7.76;100.00;102403.28;5258534;28;20025;-65
2021/09/30 03:46:23;;;;;;;10.48;2.83;;;;;;;7.74;100.00;102402.53;5261453;28;20025;-66
2021/09/30 03:48:56;;;;;;;8.27;2.33;;;;;;;7.76;100.00;102403.28;5262170;28;20045;-66
2021/09/30 03:51:54;;;;;;;6.32;1.83;;;;;;;7.77;100.00;102410.22;5255806;28;20080;-66
2021/09/30 03:54:33;;;;;;;7.60;2.05;;;;;;;7.74;100.00;102405.16;5247292;28;20507;-66
2021/09/30 03:59:54;;;;;;;5.07;2.00;;;;;;;7.74;100.00;102412.97;5261519;28;20025;-65
2021/09/30 04:02:25;;;;;;;7.70;2.40;;;;;;;7.74;100.00;102433.84;5257796;28;20025;-65
2021/09/30 04:04:56;;;;;;;7.10;2.42;;;;;;;7.74;100.00;102426.00;5274791;28;20489;-65
2021/09/30 04:07:28;;;;;;;7.32;1.90;;;;;;;7.71;100.00;102427.00;5282286;28;20485;-65
2021/09/30 04:09:59;;;;;;;6.72;2.13;;;;;;;7.71;100.00;102433.97;5270187;28;20414;-65
2021/09/30 04:12:30;;;;;;;7.68;2.28;;;;;;;7.75;100.00;102438.97;5257812;28;20437;-66
2021/09/30 04:15:02;;;;;;;6.55;2.30;;;;;;;7.71;100.00;102442.66;5240931;28;20060;-65
2021/09/30 04:17:33;;;;;;;6.60;2.20;;;;;;;7.73;100.00;102433.00;5256716;28;20025;-65
2021/09/30 04:20:05;;;;;;;5.57;1.70;;;;;;;7.69;100.00;102439.28;5257845;28;20031;-66
2021/09/30 04:22:36;;;;;;;7.53;2.17;;;;;;;7.71;100.00;102452.25;5261146;28;20104;-65
2021/09/30 04:25:08;;;;;;;7.72;2.47;;;;;;;7.73;100.00;102447.81;5261370;28;20024;-65
2021/09/30 04:27:39;;;;;;;7.28;2.53;;;;;;;7.70;100.00;102454.00;5260586;28;20047;-65
2021/09/30 04:30:11;;;;;;;7.50;2.00;;;;;;;7.67;100.00;102450.69;5260994;28;20100;-65
2021/09/30 04:32:42;;;;;;;5.65;2.17;;;;;;;7.68;100.00;102453.22;5261793;28;20104;-66
2021/09/30 04:35:14;;;;;;;8.60;2.50;;;;;;;7.68;100.00;102450.63;5260904;28;20155;-65
2021/09/30 04:37:45;;;;;;;6.68;1.92;;;;;;;7.67;100.00;102450.69;5252800;28;20029;-65
2021/09/30 04:40:16;;;;;;;6.20;2.28;;;;;;;7.67;100.00;102453.31;5261095;28;20044;-65
2021/09/30 04:42:47;;;;;;;4.38;1.73;;;;;;;7.66;100.00;102456.84;5261068;28;20032;-65
2021/09/30 04:45:19;;;;;;;8.18;2.13;;;;;;;7.65;100.00;102462.94;5260351;28;20368;-65
2021/09/30 04:47:50;;;;;;;6.55;2.10;;;;;;;7.64;100.00;102456.06;5259294;28;20464;-65
2021/09/30 04:50:21;;;;;;;6.50;2.17;;;;;;;7.64;100.00;102445.63;5260607;28;20017;-66
2021/09/30 04:52:57;;;;;;;7.00;2.10;;;;;;;7.63;100.00;102460.44;5261230;28;20035;-65
2021/09/30 04:55:29;;;;;;;6.20;2.08;;;;;;;7.61;100.00;102449.19;5255523;28;20028;-65
2021/09/30 04:58:00;;;;;;;7.80;2.25;;;;;;;7.56;100.00;102452.03;5260318;28;20025;-65
2021/09/30 05:00:31;;;;;;;9.80;3.50;;;;;;;7.59;100.00;102458.03;5260492;28;20103;-65
2021/09/30 05:03:03;;;;;;;7.30;2.25;;;;;;;7.59;100.00;102460.66;5260039;28;20462;-65
2021/09/30 05:05:34;;;;;;;8.98;2.55;;;;;;;7.57;100.00;102463.31;5258314;28;20021;-65
2021/09/30 05:08:05;;;;;;;5.63;2.05;;;;;;;7.52;100.00;102465.28;5259998;28;20715;-65
2021/09/30 05:10:39;;;;;;;8.45;2.47;;;;;;;7.54;100.00;102472.13;5259649;28;20067;-65
2021/09/30 05:13:16;;;;;;;;;;;;;;;7.78;100.00;102464.09;5266184;28;20432;-65
2021/09/30 05:15:47;;;;;;;4.20;1.90;;;;;;;7.52;100.00;102463.53;5255685;28;20004;-66
2021/09/30 05:18:18;;;;;;;6.28;1.92;;;;;;;7.53;100.00;102474.81;5274788;28;20112;-66
2021/09/30 05:20:50;;;;;;;6.93;2.40;;;;;;;7.50;100.00;102472.31;5261428;28;20445;-66
2021/09/30 05:23:22;;;;;;;5.45;2.20;;;;;;;7.50;100.00;102467.97;5260520;28;20414;-66
2021/09/30 05:25:54;;;;;;;5.30;2.10;;;;;;;7.46;100.00;102465.56;5256613;28;20029;-66
2021/09/30 05:28:25;;;;;;;6.38;2.28;;;;;;;7.47;100.00;102470.72;5258450;28;20117;-66
2021/09/30 05:30:57;;;;;;;6.35;2.30;;;;;;;7.45;100.00;102466.50;5258868;28;20047;-67
2021/09/30 05:33:28;;;;;;;7.45;1.85;;;;;;;7.43;100.00;102466.56;5259959;28;20021;-66
2021/09/30 05:35:59;;;;;;;6.82;1.88;;;;;;;7.42;100.00;102462.25;5254476;28;20027;-66
2021/09/30 05:38:31;;;;;;;8.60;2.50;;;;;;;7.43;100.00;102463.97;5260104;28;20039;-66
2021/09/30 05:41:03;;;;;;;6.43;2.25;;;;;;;7.37;100.00;102460.78;5259737;28;20115;-67
2021/09/30 05:43:36;;;;;;;6.88;2.53;;;;;;;7.38;100.00;102471.13;5257394;28;20039;-67
2021/09/30 05:46:10;;;;;;;5.68;2.38;;;;;;;7.36;100.00;102462.53;5259581;28;20445;-67
2021/09/30 05:48:42;;;;;;;8.45;2.35;;;;;;;7.38;100.00;102460.69;5260141;28;20143;-68
2021/09/30 05:51:13;;;;;;;5.25;1.75;;;;;;;7.40;100.00;102458.88;5258004;28;20024;-67
2021/09/30 05:53:44;;;;;;;9.77;2.60;;;;;;;7.37;100.00;102453.81;5251580;28;20317;-67
2021/09/30 05:56:15;;;;;;;6.25;2.20;;;;;;;7.37;100.00;102455.56;5259884;28;20096;-67
2021/09/30 05:58:47;;;;;;;7.22;2.47;;;;;;;7.40;100.00;102450.22;5259324;28;20024;-66
2021/09/30 06:01:33;;;;;;;9.85;2.47;;;;;;;7.40;100.00;102456.28;5258944;28;20473;-67
2021/09/30 06:12:38;;;;;;;5.57;2.40;;;;;;;7.40;100.00;102451.06;5245828;28;20045;-67
2021/09/30 06:15:14;;;;;;;8.18;2.65;;;;;;;7.40;100.00;102458.03;5251805;28;20048;-67
2021/09/30 06:17:46;;;;;;;7.50;2.42;;;;;;;7.48;100.00;102466.34;5259316;28;20039;-67
2021/09/30 06:20:18;;;;;;;9.05;3.30;;;;;;;7.46;100.00;102460.34;5251558;28;20025;-67
2021/09/30 06:22:49;;;;;;;8.23;2.30;;;;;;;7.45;100.00;102456.91;5256476;28;20017;-67
2021/09/30 06:25:21;;;;;;;7.13;2.53;;;;;;;7.48;100.00;102461.13;5257844;28;20064;-67
2021/09/30 06:27:52;;;;;;;5.97;2.15;;;;;;;7.56;100.00;102464.22;5254599;28;20028;-67
2021/09/30 06:30:29;;;;;;;7.45;2.30;;;;;;;7.62;100.00;102457.91;5253418;28;20029;-67
2021/09/30 06:33:00;;;;;;;8.07;2.30;;;;;;;7.65;100.00;102462.94;5255823;28;20021;-67
2021/09/30 06:35:31;;;;;;;6.10;2.33;;;;;;;7.67;100.00;102474.19;5258354;28;20087;-67
2021/09/30 06:38:03;;;;;;;4.68;2.38;;;;;;;7.73;100.00;102473.91;5256848;28;20032;-67
2021/09/30 06:40:34;;;;;;;10.57;2.75;;;;;;;7.76;100.00;102473.72;5252188;28;20056;-66
2021/09/30 06:43:06;;;;;;;9.25;2.63;;;;;;;7.81;100.00;102469.16;5252510;28;20028;-67
2021/09/30 06:45:40;;;;;;;9.45;2.78;;;;;;;7.87;100.00;102463.63;5257819;28;20047;-67
2021/09/30 06:48:12;;;;;;;8.07;2.80;;;;;;;7.92;100.00;102466.91;5258125;28;20111;-67
2021/09/30 06:50:43;;;;;;;9.20;2.88;;;;;;;8.00;100.00;102469.13;5254268;28;20107;-67
2021/09/30 06:53:15;;;;;;;7.57;3.00;;;;;;;8.03;100.00;102476.78;5259066;28;20029;-67
2021/09/30 06:55:46;;;;;;;8.63;2.60;;;;;;;8.11;100.00;102481.69;5252976;28;20327;-67
2021/09/30 06:58:23;;;;;;;8.32;2.63;;;;;;;8.18;100.00;102477.81;5255341;28;20505;-67
2021/09/30 07:00:57;;;;;;;7.70;2.67;;;;;;;8.24;100.00;102472.31;5256618;28;20043;-67
2021/09/30 07:03:28;;;;;;;6.40;3.25;;;;;;;8.31;100.00;102480.69;5249112;28;20036;-66
2021/09/30 07:06:00;;;;;;;9.38;3.10;;;;;;;8.37;100.00;102477.78;5250109;28;20029;-67
2021/09/30 07:08:31;;;;;;;6.95;2.05;;;;;;;8.43;100.00;102472.28;5253039;28;20096;-67
2021/09/30 07:11:03;;;;;;;10.73;2.65;;;;;;;8.49;100.00;102483.28;5260160;28;20012;-67
2021/09/30 07:13:34;;;;;;;8.98;2.67;;;;;;;8.53;100.00;102489.19;5257680;28;20021;-67
2021/09/30 07:16:06;;;;;;;6.78;2.30;;;;;;;8.57;100.00;102479.44;5259770;28;20423;-66
2021/09/30 07:18:37;;;;;;;6.50;2.30;;;;;;;8.51;100.00;102465.75;5258001;28;20091;-67
2021/09/30 07:21:08;;;;;;;9.25;2.60;;;;;;;8.67;100.00;102484.09;5254527;28;20024;-67
2021/09/30 07:23:40;;;;;;;11.27;2.95;;;;;;;8.74;100.00;102482.03;5255901;28;20024;-67
2021/09/30 07:26:13;;;;;;;6.47;2.53;;;;;;;8.79;100.00;102477.44;5258457;28;20072;-67
2021/09/30 07:28:44;;;;;;;11.25;2.83;;;;;;;8.86;100.00;102480.56;5258167;28;20029;-67
2021/09/30 07:31:15;;;;;;;8.23;2.75;;;;;;;8.92;100.00;102481.09;5261301;28;20319;-67
2021/09/30 07:33:47;;;;;;;7.35;2.63;;;;;;;8.97;100.00;102476.47;5261869;28;20025;-67
2021/09/30 07:36:18;;;;;;;9.50;3.67;;;;;;;9.06;100.00;102479.56;5261182;28;20020;-67
2021/09/30 07:38:50;;;;;;;9.23;3.03;;;;;;;9.12;100.00;102487.06;5258939;28;20047;-67
2021/09/30 07:41:21;;;;;;;6.28;2.50;;;;;;;9.19;100.00;102491.03;5259256;28;20036;-67
2021/09/30 07:43:53;;;;;;;9.07;2.58;;;;;;;9.27;100.00;102492.31;5259331;28;20528;-67
2021/09/30 07:46:24;;;;;;;12.35;2.85;;;;;;;9.33;100.00;102485.09;5257958;28;20025;-67
2021/09/30 07:48:56;;;;;;;7.95;2.17;;;;;;;9.41;100.00;102488.13;5258917;28;20063;-67
2021/09/30 07:51:27;;;;;;;8.70;2.75;;;;;;;9.46;100.00;102486.09;5260640;28;20025;-66
2021/09/30 07:53:58;;;;;;;8.23;3.13;;;;;;;9.55;100.00;102492.63;5261432;28;20029;-67
2021/09/30 07:56:31;;;;;;;8.98;3.15;;;;;;;9.59;100.00;102488.91;5258390;28;20017;-67
2021/09/30 07:59:03;;;;;;;10.60;3.20;;;;;;;9.65;100.00;102489.41;5258450;28;20030;-67
2021/09/30 08:01:35;;;;;;;9.97;2.40;;;;;;;9.71;100.00;102501.34;5257551;28;20036;-67
2021/09/30 08:04:06;;;;;;;5.28;2.20;;;;;;;9.79;100.00;102498.28;5260760;28;20021;-67
2021/09/30 08:06:39;;;;;;;9.70;2.70;;;;;;;9.87;100.00;102496.94;5258767;28;20316;-67
2021/09/30 08:09:11;;;;;;;7.18;2.30;;;;;;;9.92;100.00;102501.91;5262633;28;20025;-66
2021/09/30 08:11:42;;;;;;;10.63;2.90;;;;;;;9.99;100.00;102500.63;5258727;28;20032;-67
2021/09/30 08:14:14;;;;;;;7.78;2.80;;;;;;;10.05;100.00;102500.31;5266555;28;20025;-67
2021/09/30 08:16:47;;;;;;;8.13;2.78;;;;;;;10.19;100.00;102503.00;5257727;28;20025;-67
2021/09/30 08:19:19;;;;;;;;;;;;;;;10.41;100.00;102505.25;5260422;28;20033;-67
2021/09/30 08:21:50;;;;;;;8.17;2.50;;;;;;;10.33;100.00;102501.38;5259635;28;19951;-67
2021/09/30 08:24:21;;;;;;;7.60;2.72;;;;;;;10.38;100.00;102505.44;5256497;28;20060;-67
2021/09/30 08:26:52;;;;;;;10.75;3.38;;;;;;;10.45;100.00;102514.66;5269356;28;20529;-67
2021/09/30 08:29:24;;;;;;;6.78;3.17;;;;;;;10.55;100.00;102503.63;5263155;28;20033;-67
2021/09/30 08:31:55;;;;;;;11.20;2.75;;;;;;;10.64;100.00;102501.28;5258657;28;20895;-67
2021/09/30 08:34:26;;;;;;;8.10;2.47;;;;;;;10.75;100.00;102503.28;5255563;28;20036;-67
2021/09/30 08:36:58;;;;;;;7.70;2.60;;;;;;;10.84;100.00;102500.13;5260494;28;20017;-67
2021/09/30 08:39:32;;;;;;;7.43;2.78;;;;;;;10.96;100.00;102499.41;5258251;28;20541;-66
2021/09/30 08:42:04;;;;;;;9.00;3.00;;;;;;;11.10;100.00;102513.44;5255206;28;20093;-66
2021/09/30 08:44:35;;;;;;;9.95;2.67;;;;;;;11.27;100.00;102520.31;5260077;28;20124;-66
2021/09/30 08:47:07;;;;;;;14.05;2.50;;;;;;;11.37;100.00;102516.19;5257250;28;20127;-66
2021/09/30 08:49:38;;;;;;;10.52;2.65;;;;;;;11.49;100.00;102518.06;5258892;28;20017;-66
2021/09/30 08:52:10;;;;;;;11.82;2.78;;;;;;;11.63;100.00;102518.03;5261067;28;20135;-66
2021/09/30 08:54:41;;;;;;;7.47;2.40;;;;;;;11.70;100.00;102510.59;5260228;28;20025;-66
2021/09/30 08:57:13;;;;;;;8.43;2.67;;;;;;;11.81;100.00;102517.81;5258893;28;20021;-66
2021/09/30 08:59:59;;;;;;;8.88;2.10;;;;;;;11.94;100.00;102513.50;5256241;28;20645;-66
2021/09/30 09:02:30;;;;;;;13.93;2.45;;;;;;;12.08;100.00;102512.59;5263359;28;20017;-66
2021/09/30 09:05:01;;;;;;;8.35;2.05;;;;;;;12.23;100.00;102508.13;5258400;28;20052;-66
2021/09/30 09:07:33;;;;;;;9.15;2.40;;;;;;;12.31;100.00;102503.22;5260088;28;20069;-66
2021/09/30 09:10:09;;;;;;;12.10;3.25;;;;;;;12.58;100.00;102514.56;5257621;28;20074;-67
2021/09/30 09:12:41;;;;;;;9.15;2.30;;;;;;;12.76;100.00;102516.88;5258974;28;20056;-67
2021/09/30 09:15:12;;;;;;;7.03;2.38;;;;;;;12.72;100.00;102511.00;5256475;28;20509;-67
2021/09/30 09:17:49;;;;;;;8.90;1.95;;;;;;;12.74;100.00;102509.13;5259976;28;20033;-66
2021/09/30 09:20:26;;;;;;;11.70;2.30;;;;;;;12.64;100.00;102510.66;5257775;28;20234;-66
2021/09/30 09:22:57;;;;;;;8.30;2.20;;;;;;;12.62;100.00;102510.78;5262829;28;20028;-67
2021/09/30 09:25:30;;;;;;;9.57;2.65;;;;;;;12.57;100.00;102509.38;5259928;28;20044;-67
2021/09/30 09:28:01;;;;;;;10.70;2.28;;;;;;;12.49;100.00;102509.91;5268398;28;20024;-66
2021/09/30 09:30:35;;;;;;;6.38;1.73;;;;;;;12.50;100.00;102506.34;5265001;28;20028;-67
2021/09/30 09:33:10;;;;;;;8.50;1.92;;;;;;;12.41;100.00;102518.28;5261509;28;20020;-66
2021/09/30 09:35:53;;;;;;;6.28;2.55;;;;;;;12.49;100.00;102515.16;5263760;28;20086;-67
2021/09/30 09:38:28;;;;;;;6.78;2.05;;;;;;;12.48;100.00;102513.47;5261614;28;20116;-67
2021/09/30 09:41:03;;;;;;;6.78;2.10;;;;;;;12.48;100.00;102508.22;5262568;28;20082;-67
2021/09/30 09:43:45;;;;;;;8.10;1.88;;;;;;;12.61;100.00;102511.75;5258936;28;20225;-67
2021/09/30 09:46:21;;;;;;;5.07;2.00;;;;;;;12.64;100.00;102502.78;5263140;28;20036;-67
2021/09/30 09:49:00;;;;;;;6.97;1.67;;;;;;;12.71;100.00;102511.09;5266302;28;20032;-67
2021/09/30 09:51:45;;;;;;;6.13;1.75;;;;;;;12.83;100.00;102500.59;5258715;28;20036;-67
2021/09/30 09:54:19;;;;;;;7.38;2.20;;;;;;;12.91;100.00;102495.63;5258500;28;20025;-67
2021/09/30 09:56:51;;;;;;;8.43;1.92;;;;;;;13.09;100.00;102497.97;5262130;28;20028;-67
2021/09/30 09:59:30;;;;;;;6.32;1.77;;;;;;;13.20;100.00;102491.97;5268276;28;20036;-67
2021/09/30 10:02:02;;;;;;;6.65;1.92;;;;;;;13.31;100.00;102492.94;5259918;28;20029;-67
2021/09/30 10:04:33;;;;;;;8.20;2.00;;;;;;;13.41;100.00;102494.91;5262721;28;20482;-67
2021/09/30 10:07:06;;;;;;;7.80;2.13;;;;;;;13.46;100.00;102492.81;5267337;28;20020;-67
2021/09/30 10:09:37;;;;;;;5.53;1.90;;;;;;;13.48;100.00;102489.09;5260705;28;20028;-67
2021/09/30 10:12:09;;;;;;;7.20;1.90;;;;;;;13.52;100.00;102487.09;5266661;28;20047;-67
2021/09/30 10:14:41;;;;;;;8.93;1.95;;;;;;;13.53;100.00;102484.38;5266664;28;20028;-67
2021/09/30 10:17:13;;;;;;;5.00;1.90;;;;;;;13.68;100.00;102476.31;5256681;28;20028;-67
2021/09/30 10:19:45;;;;;;;6.95;1.77;;;;;;;13.76;100.00;102473.97;5266468;28;20759;-67
2021/09/30 10:22:16;;;;;;;8.02;1.83;;;;;;;13.84;100.00;102476.88;5263754;28;20082;-67
2021/09/30 10:24:48;;;;;;;10.25;1.90;;;;;;;13.83;100.00;102468.16;5257837;28;20025;-67
2021/09/30 10:27:20;;;;;;;7.72;1.60;;;;;;;13.90;100.00;102462.41;5255085;28;20116;-67
2021/09/30 10:29:53;;;;;;;9.13;2.10;;;;;;;13.85;100.00;102470.66;5262723;28;20382;-67
2021/09/30 10:32:25;;;;;;;7.22;2.30;;;;;;;13.92;100.00;102464.00;5267152;28;20017;-67
2021/09/30 10:35:03;;;;;;;6.82;2.05;;;;;;;13.99;100.00;102467.88;5257573;28;20367;-67
2021/09/30 10:37:36;;;;;;;7.47;1.70;;;;;;;14.00;100.00;102460.78;5257658;28;20032;-67
2021/09/30 10:40:18;;;;;;;5.85;1.75;;;;;;;14.07;100.00;102468.13;5255657;28;20379;-67
2021/09/30 10:42:58;;;;;;;5.93;1.80;;;;;;;14.13;100.00;102464.22;5252253;28;20108;-67
2021/09/30 10:45:40;;;;;;;6.88;1.95;;;;;;;14.18;100.00;102467.34;5261395;28;20083;-67
2021/09/30 10:48:41;;;;;;;7.10;2.20;;;;;;;14.32;100.00;102464.53;5264235;28;20028;-67
2021/09/30 10:51:13;;;;;;;9.70;2.08;;;;;;;14.23;100.00;102459.94;5257127;28;20036;-67
2021/09/30 10:53:47;;;;;;;5.93;1.85;;;;;;;14.28;100.00;102463.06;5259033;28;20063;-67
2021/09/30 10:56:24;;;;;;;8.38;2.33;;;;;;;14.36;100.00;102463.34;5265351;28;20434;-67
2021/09/30 10:59:27;;;;;;;6.50;1.73;;;;;;;14.55;100.00;102465.47;5266390;28;20016;-67
2021/09/30 11:01:58;;;;;;;6.20;1.40;;;;;;;14.49;100.00;102460.63;5263938;28;20340;-67
2021/09/30 11:05:21;;;;;;;8.53;2.50;;;;;;;14.62;100.00;102455.25;5263060;28;20394;-67
2021/09/30 11:08:23;;;;;;;8.15;1.77;;;;;;;14.63;100.00;102459.59;5218841;28;20087;-67
2021/09/30 11:11:04;;;;;;;8.55;1.52;;;;;;;14.51;100.00;102450.00;5264792;28;20020;-67
2021/09/30 11:13:55;;;;;;;5.50;1.73;;;;;;;14.58;100.00;102452.03;5271611;28;20387;-67
2021/09/30 11:16:37;;;;;;;7.18;1.65;;;;;;;14.57;100.00;102455.63;5264390;28;20033;-67
2021/09/30 11:19:38;;;;;;;6.25;1.67;;;;;;;14.72;100.00;102448.31;5256041;28;20139;-67
2021/09/30 11:22:11;;;;;;;6.68;1.60;;;;;;;14.73;100.00;102449.16;5261238;28;20085;-67
2021/09/30 11:24:57;;;;;;;5.30;1.48;;;;;;;14.81;100.00;102441.50;5267997;28;20065;-67
2021/09/30 11:27:31;;;;;;;4.97;1.40;;;;;;;14.67;100.00;102441.75;5266439;28;20052;-68
2021/09/30 11:30:21;;;;;;;6.47;1.90;;;;;;;14.82;100.00;102438.75;5255232;28;20017;-67
2021/09/30 11:32:55;;;;;;;6.60;1.77;;;;;;;14.68;100.00;102430.22;5270077;28;20024;-67
2021/09/30 11:35:27;;;;;;;7.60;2.22;;;;;;;14.78;100.00;102428.56;5263404;28;20328;-67
2021/09/30 11:37:58;;;;;;;6.93;1.60;;;;;;;14.88;100.00;102431.31;5267514;28;20414;-67
2021/09/30 11:40:29;;;;;;;5.78;1.80;;;;;;;14.89;100.00;102433.84;5273570;28;20056;-67
2021/09/30 11:43:01;;;;;;;5.93;1.63;;;;;;;14.94;100.00;102425.56;5260358;28;20394;-67
2021/09/30 11:45:34;;;;;;;6.80;1.77;;;;;;;14.95;100.00;102432.53;5266120;28;20040;-67
2021/09/30 11:48:08;;;;;;;8.13;1.60;;;;;;;14.91;100.00;102417.88;5272687;28;20492;-68
2021/09/30 11:50:40;;;;;;;6.03;1.60;;;;;;;14.96;100.00;102407.78;5272747;28;20119;-67
2021/09/30 11:53:11;;;;;;;7.40;1.60;;;;;;;15.20;100.00;102405.88;5258064;28;20143;-67
2021/09/30 11:55:43;;;;;;;7.55;1.90;;;;;;;15.35;100.00;102409.09;5268420;28;20020;-67
2021/09/30 11:58:15;;;;;;;4.43;1.42;;;;;;;15.37;100.00;102401.88;5268835;28;20111;-68
2021/09/30 12:00:46;;;;;;;6.93;1.80;;;;;;;15.42;100.00;102404.13;5260114;28;20554;-67
2021/09/30 12:03:19;;;;;;;4.50;1.73;;;;;;;15.51;100.00;102406.88;5262073;28;20100;-67
2021/09/30 12:05:54;;;;;;;8.15;1.88;;;;;;;15.59;100.00;102408.91;5274639;28;20029;-68
2021/09/30 12:08:26;;;;;;;8.60;2.30;;;;;;;15.49;100.00;102398.25;5260462;28;20029;-67
2021/09/30 12:11:00;;;;;;;8.18;2.15;;;;;;;15.43;100.00;102396.09;5260358;28;20399;-67
2021/09/30 12:13:32;;;;;;;7.50;2.20;;;;;;;15.41;100.00;102394.53;5267364;28;20013;-67
2021/09/30 12:16:04;;;;;;;6.30;2.17;;;;;;;15.39;100.00;102392.03;5271083;28;20085;-67
2021/09/30 12:18:35;;;;;;;7.37;2.13;;;;;;;15.39;100.00;102397.31;5261027;28;20472;-68
2021/09/30 12:21:06;;;;;;;9.55;2.40;;;;;;;15.35;100.00;102395.88;5271370;28;20416;-68
2021/09/30 12:23:38;;;;;;;6.65;2.58;;;;;;;15.30;100.00;102388.34;5270521;28;20023;-68
2021/09/30 12:26:09;;;;;;;9.05;3.17;;;;;;;15.31;100.00;102384.72;5259845;28;20364;-68
2021/09/30 12:28:40;;;;;;;7.82;2.50;;;;;;;15.31;100.00;102387.38;5274211;28;20028;-67
2021/09/30 12:31:16;;;;;;;7.75;2.60;;;;;;;15.35;100.00;102384.50;5265508;28;20024;-68
2021/09/30 12:33:47;;;;;;;6.45;2.20;;;;;;;15.25;100.00;102385.22;5259991;28;20036;-67
2021/09/30 12:36:19;;;;;;;6.03;2.60;;;;;;;15.14;100.00;102382.59;5264077;28;20021;-67
2021/09/30 12:39:00;;;;;;;6.57;2.78;;;;;;;15.16;100.00;102371.94;5274199;28;20051;-68
2021/09/30 12:41:33;;;;;;;7.25;2.20;;;;;;;15.15;100.00;102378.16;5267605;28;20429;-68
2021/09/30 12:44:12;;;;;;;9.75;2.80;;;;;;;15.17;100.00;102374.44;5258979;28;20501;-67
2021/09/30 12:46:49;;;;;;;7.35;2.90;;;;;;;15.08;100.00;102388.38;5267921;28;20036;-67
2021/09/30 12:49:21;;;;;;;9.48;3.05;;;;;;;15.06;100.00;102380.56;5271018;28;20034;-67
2021/09/30 12:51:55;;;;;;;8.50;3.35;;;;;;;15.00;100.00;102380.19;5260351;28;20474;-67
2021/09/30 12:54:27;;;;;;;8.90;3.35;;;;;;;14.91;100.00;102370.38;5263736;28;20044;-67
2021/09/30 12:57:09;;;;;;;8.23;3.00;;;;;;;14.96;100.00;102371.69;5267599;28;20410;-67
2021/09/30 13:00:07;;;;;;;7.83;3.00;;;;;;;15.03;100.00;102379.97;5267949;28;20047;-67
2021/09/30 13:02:40;;;;;;;9.88;2.50;;;;;;;14.89;100.00;102364.38;5257276;28;20542;-67
2021/09/30 13:05:11;;;;;;;8.30;2.60;;;;;;;14.99;100.00;102360.88;5256343;28;20025;-67
2021/09/30 13:07:48;;;;;;;8.05;2.50;;;;;;;14.96;100.00;102355.00;5266792;28;20287;-67
2021/09/30 13:10:30;;;;;;;6.97;2.50;;;;;;;15.12;100.00;102358.13;5259993;28;20440;-67
2021/09/30 13:13:15;;;;;;;7.07;2.00;;;;;;;15.20;100.00;102355.72;5267227;28;20028;-67
2021/09/30 13:15:47;;;;;;;7.07;2.10;;;;;;;15.24;100.00;102351.03;5245132;28;20371;-67
2021/09/30 13:18:19;;;;;;;7.57;2.17;;;;;;;15.31;100.00;102344.28;5258713;28;20032;-67
2021/09/30 13:21:07;;;;;;;6.32;2.00;;;;;;;15.35;100.00;102345.72;5259977;28;20056;-67
2021/09/30 13:23:38;;;;;;;6.72;2.08;;;;;;;15.24;100.00;102337.81;5257002;28;20336;-67
2021/09/30 13:26:10;;;;;;;6.10;2.22;;;;;;;15.25;100.00;102332.41;5257317;28;20104;-67
2021/09/30 13:28:41;;;;;;;4.45;1.65;;;;;;;15.30;100.00;102330.25;5264239;28;20501;-67
2021/09/30 13:31:12;;;;;;;6.15;1.80;;;;;;;15.36;100.00;102328.06;5265267;28;20040;-67
2021/09/30 13:33:43;;;;;;;6.22;1.90;;;;;;;15.27;100.00;102324.38;5268796;28;20013;-67
2021/09/30 13:36:16;;;;;;;7.07;2.15;;;;;;;15.27;100.00;102327.03;5270663;28;20024;-67
2021/09/30 13:38:47;;;;;;;7.65;1.85;;;;;;;15.26;100.00;102322.69;5265634;28;20082;-67
2021/09/30 13:41:19;;;;;;;6.65;1.65;;;;;;;15.27;100.00;102319.09;5258761;28;20103;-67
2021/09/30 13:43:51;;;;;;;8.23;1.90;;;;;;;15.18;100.00;102312.75;5259562;28;20024;-67
2021/09/30 13:46:22;;;;;;;7.72;1.50;;;;;;;15.21;100.00;102304.56;5259094;28;20028;-67
2021/09/30 13:48:53;;;;;;;6.18;1.60;;;;;;;15.26;100.00;102302.38;5258361;28;20044;-67
2021/09/30 13:51:30;;;;;;;4.53;1.30;;;;;;;15.51;100.00;102300.41;5259747;28;20398;-67
2021/09/30 13:54:01;;;;;;;8.68;1.90;;;;;;;15.57;100.00;102298.09;5259044;28;20359;-67
2021/09/30 13:56:33;;;;;;;6.90;1.50;;;;;;;15.66;100.00;102295.69;5257692;28;20013;-67
2021/09/30 13:59:04;;;;;;;6.20;1.30;;;;;;;15.59;100.00;102290.03;5271011;28;20040;-67
2021/09/30 14:01:35;;;;;;;5.38;1.17;;;;;;;15.61;100.00;102287.25;5273058;28;20052;-67
2021/09/30 14:04:07;;;;;;;6.20;1.63;;;;;;;15.50;100.00;102285.53;5263488;28;20028;-67
2021/09/30 14:06:38;;;;;;;5.47;1.40;;;;;;;15.42;100.00;102280.00;5261705;28;20036;-67
2021/09/30 14:09:09;;;;;;;5.10;1.42;;;;;;;15.43;100.00;102281.72;5270991;28;20025;-67
2021/09/30 14:11:41;;;;;;;9.48;1.83;;;;;;;15.46;100.00;102278.81;5258006;28;20104;-67
2021/09/30 14:14:13;;;;;;;6.13;1.50;;;;;;;15.42;100.00;102274.72;5258586;28;20029;-67
2021/09/30 14:16:48;;;;;;;5.57;1.52;;;;;;;15.40;100.00;102276.66;5256850;28;20302;-67
2021/09/30 14:19:25;;;;;;;5.88;1.58;;;;;;;15.44;100.00;102272.81;5263924;28;20493;-67
2021/09/30 14:21:57;;;;;;;6.45;1.30;;;;;;;15.39;100.00;102267.09;5267500;28;20033;-67
2021/09/30 14:24:30;;;;;;;5.10;1.27;;;;;;;15.44;100.00;102257.78;5257340;28;20021;-67
2021/09/30 14:27:03;;;;;;;7.00;1.67;;;;;;;15.46;100.00;102257.69;5254091;28;20020;-67
2021/09/30 14:29:41;;;;;;;6.60;2.10;;;;;;;15.40;100.00;102260.81;5258517;28;20072;-67
2021/09/30 14:32:12;;;;;;;6.80;1.63;;;;;;;15.42;100.00;102251.81;5254976;28;20056;-67
2021/09/30 14:34:44;;;;;;;6.65;1.85;;;;;;;15.46;100.00;102244.47;5266299;28;20044;-67
2021/09/30 14:37:15;;;;;;;8.85;1.70;;;;;;;15.45;100.00;102238.34;5267585;28;20013;-67
2021/09/30 14:39:46;;;;;;;5.47;1.60;;;;;;;15.46;100.00;102241.84;5262671;28;20040;-67
2021/09/30 14:42:18;;;;;;;7.72;1.40;;;;;;;15.36;100.00;102244.41;5260999;28;20079;-67